createdAt,value
2017-05-28T12:12:21.950Z,1.60
2017-05-28T12:14:50.261Z,1.25
2017-05-28T12:17:18.842Z,1.92
2017-05-28T12:19:47.189Z,1.55
2017-05-28T12:22:15.583Z,1.02
2017-05-28T12:24:43.886Z,1.10
2017-05-28T12:27:12.214Z,2.65
2017-05-28T12:29:40.565Z,4.93
2017-05-28T12:32:08.861Z,1.50
2017-05-28T12:34:37.190Z,1.45
2017-05-28T12:37:05.489Z,1.27
2017-05-28T12:39:33.786Z,1.38
2017-05-28T12:42:02.199Z,1.50
2017-05-28T12:44:30.499Z,1.75
2017-05-28T12:46:58.795Z,2.23
2017-05-28T12:49:27.119Z,1.30
2017-05-28T12:51:55.419Z,1.75
2017-05-28T12:54:23.717Z,1.42
2017-05-28T12:56:52.043Z,1.47
2017-05-28T12:59:20.351Z,1.60
2017-05-28T13:01:48.642Z,1.60
2017-05-28T13:04:16.963Z,1.90
2017-05-28T13:06:45.259Z,1.45
2017-05-28T13:09:13.790Z,1.33
2017-05-28T13:11:42.102Z,1.25
2017-05-28T13:14:10.404Z,2.62
2017-05-28T13:16:38.718Z,1.25
2017-05-28T13:19:07.015Z,1.25
2017-05-28T13:21:35.347Z,1.42
2017-05-28T13:24:03.649Z,2.38
2017-05-28T13:26:31.991Z,3.08
2017-05-28T13:29:00.309Z,2.20
2017-05-28T13:31:28.725Z,1.32
2017-05-28T13:33:57.024Z,1.43
2017-05-28T13:36:25.321Z,1.47
2017-05-28T13:38:53.645Z,1.20
2017-05-28T13:41:21.944Z,1.70
2017-05-28T13:43:50.261Z,1.22
2017-05-28T13:46:18.557Z,1.20
2017-05-28T13:48:46.882Z,1.27
2017-05-28T13:51:15.185Z,1.10
2017-05-28T13:53:43.505Z,1.32
2017-05-28T13:56:11.803Z,1.05
2017-05-28T13:58:40.199Z,0.98
2017-05-28T14:01:08.514Z,1.25
2017-05-28T14:03:36.848Z,1.25
2017-05-28T14:06:05.234Z,1.10
2017-05-28T14:08:33.538Z,1.40
2017-05-28T14:11:01.874Z,1.10
2017-05-28T14:13:30.179Z,3.00
2017-05-28T14:15:58.573Z,2.72
2017-05-28T14:18:26.898Z,1.48
2017-05-28T14:20:55.206Z,1.40
2017-05-28T14:23:23.505Z,1.42
2017-05-28T14:25:51.866Z,1.20
2017-05-28T14:28:20.170Z,1.10
2017-05-28T14:30:48.518Z,1.38
2017-05-28T14:33:17.219Z,1.30
2017-05-28T14:35:45.546Z,1.10
2017-05-28T14:38:13.966Z,0.98
2017-05-28T14:40:42.334Z,1.10
2017-05-28T14:43:10.636Z,1.15
2017-05-28T14:45:38.965Z,0.95
2017-05-28T14:48:07.357Z,1.55
2017-05-28T14:50:35.659Z,1.18
2017-05-28T14:53:03.985Z,1.25
2017-05-28T14:55:32.287Z,0.87
2017-05-28T14:58:00.686Z,0.80
2017-05-28T15:00:29.007Z,0.80
2017-05-28T15:02:57.379Z,1.00
2017-05-28T15:05:25.904Z,1.40
2017-05-28T15:07:54.218Z,1.08
2017-05-28T15:10:22.542Z,3.82
2017-05-28T15:12:50.938Z,1.50
2017-05-28T15:15:19.238Z,1.05
2017-05-28T15:17:47.607Z,1.55
2017-05-28T15:20:15.916Z,1.57
2017-05-28T15:22:44.214Z,1.40
2017-05-28T15:25:12.640Z,5.17
2017-05-28T15:27:41.019Z,1.33
2017-05-28T15:30:09.386Z,1.27
2017-05-28T15:32:37.690Z,1.00
2017-05-28T15:35:06.041Z,1.40
2017-05-28T15:37:34.341Z,0.82
2017-05-28T15:40:02.939Z,0.92
2017-05-28T15:42:31.389Z,1.25
2017-05-28T15:44:59.769Z,1.30
2017-05-28T15:47:28.080Z,0.90
2017-05-28T15:49:56.415Z,1.18
2017-05-28T15:52:24.803Z,1.02
2017-05-28T15:54:53.167Z,1.00
2017-05-28T15:57:21.543Z,1.60
2017-05-28T15:59:49.847Z,1.40
2017-05-28T16:02:18.179Z,0.90
2017-05-28T16:04:46.603Z,0.97
2017-05-28T16:07:14.959Z,0.70
2017-05-28T16:09:43.282Z,0.77
2017-05-28T16:12:11.587Z,0.80
2017-05-28T16:14:39.995Z,0.92
2017-05-28T16:17:08.318Z,0.95
2017-05-28T16:19:36.618Z,0.85
2017-05-28T16:22:04.932Z,0.90
2017-05-28T16:24:33.270Z,0.80
2017-05-28T16:27:01.568Z,0.90
2017-05-28T16:29:30.046Z,0.98
2017-05-28T16:31:58.388Z,1.52
2017-05-28T16:34:26.685Z,0.75
2017-05-28T16:36:55.752Z,1.00
2017-05-28T16:39:24.478Z,1.07
2017-05-28T16:41:52.778Z,1.50
2017-05-28T16:44:21.146Z,2.46
2017-05-28T16:46:49.466Z,2.82
2017-05-28T16:49:17.804Z,1.80
2017-05-28T16:51:46.177Z,1.50
2017-05-28T16:54:14.542Z,2.52
2017-05-28T16:56:42.854Z,1.58
2017-05-28T16:59:11.181Z,2.84
2017-05-28T17:01:39.595Z,1.66
2017-05-28T17:04:07.963Z,1.10
2017-05-28T17:06:36.336Z,1.10
2017-05-28T17:09:04.710Z,1.54
2017-05-28T17:11:33.003Z,1.44
2017-05-28T17:14:01.326Z,1.48
2017-05-28T17:16:29.642Z,1.54
2017-05-28T17:18:57.943Z,1.02
2017-05-28T17:21:26.267Z,1.48
2017-05-28T17:23:54.567Z,1.56
2017-05-28T17:26:23.118Z,2.30
2017-05-28T17:28:51.528Z,2.56
2017-05-28T17:31:19.920Z,2.16
2017-05-28T17:33:48.247Z,4.64
2017-05-28T17:36:16.586Z,1.98
2017-05-28T17:38:44.979Z,16.50
2017-05-28T17:41:13.330Z,4.28
2017-05-28T17:43:41.626Z,1.80
2017-05-28T17:46:09.951Z,3.04
2017-05-28T17:48:38.269Z,2.50
2017-05-28T17:51:06.570Z,2.26
2017-05-28T17:53:35.002Z,1.34
2017-05-28T17:56:03.312Z,1.10
2017-05-28T17:58:31.613Z,1.30
2017-05-28T18:01:00.033Z,1.56
2017-05-28T18:03:28.331Z,1.36
2017-05-28T18:05:56.659Z,3.12
2017-05-28T18:08:24.981Z,5.80
2017-05-28T18:10:53.287Z,4.34
2017-05-28T18:13:21.610Z,3.14
2017-05-28T18:15:49.918Z,3.84
2017-05-28T18:18:18.262Z,4.26
2017-05-28T18:20:46.662Z,3.36
2017-05-28T18:23:14.959Z,7.20
2017-05-28T18:25:43.305Z,10.48
2017-05-28T18:28:11.607Z,6.52
2017-05-28T18:30:40.059Z,11.54
2017-05-28T18:33:08.401Z,5.84
2017-05-28T18:35:36.741Z,5.22
2017-05-28T18:38:05.110Z,4.02
2017-05-28T18:40:33.444Z,4.44
2017-05-28T18:43:01.902Z,3.20
2017-05-28T18:45:30.201Z,3.30
2017-05-28T18:47:58.603Z,3.28
2017-05-28T18:50:26.937Z,3.20
2017-05-28T18:52:55.262Z,3.40
2017-05-28T18:55:23.635Z,3.24
2017-05-28T18:57:52.116Z,4.74
2017-05-28T19:00:20.417Z,9.16
2017-05-28T19:02:48.801Z,6.48
2017-05-28T19:05:17.109Z,5.68
2017-05-28T19:07:45.427Z,4.42
2017-05-28T19:10:13.735Z,15.60
2017-05-28T19:12:42.065Z,9.84
2017-05-28T19:15:10.381Z,4.40
2017-05-28T19:17:38.687Z,5.40
2017-05-28T19:20:07.031Z,8.54
2017-05-28T19:22:35.343Z,6.66
2017-05-28T19:25:03.674Z,6.68
2017-05-28T19:27:32.054Z,4.02
2017-05-28T19:30:00.346Z,4.22
2017-05-28T19:32:28.659Z,4.32
2017-05-28T19:34:56.998Z,4.02
2017-05-28T19:37:25.378Z,3.10
2017-05-28T19:39:53.682Z,3.40
2017-05-28T19:42:22.020Z,3.12
2017-05-28T19:44:50.338Z,3.30
2017-05-28T19:47:18.638Z,3.84
2017-05-28T19:49:46.966Z,3.98
2017-05-28T19:52:15.280Z,3.38
2017-05-28T19:54:43.605Z,3.04
2017-05-28T19:57:11.944Z,2.56
2017-05-28T19:59:40.365Z,1.74
2017-05-28T20:02:08.662Z,6.28
2017-05-28T20:04:37.034Z,4.28
2017-05-28T20:07:05.361Z,6.80
2017-05-28T20:09:33.665Z,8.08
2017-05-28T20:12:01.966Z,11.60
2017-05-28T20:14:30.318Z,4.34
2017-05-28T20:16:58.845Z,3.74
2017-05-28T20:19:27.141Z,3.90
2017-05-28T20:21:55.459Z,4.02
2017-05-28T20:24:23.754Z,3.66
2017-05-28T20:26:52.195Z,4.18
2017-05-28T20:29:20.518Z,3.50
2017-05-28T20:31:48.846Z,4.50
2017-05-28T20:34:17.248Z,4.20
2017-05-28T20:36:45.636Z,3.94
2017-05-28T20:39:13.938Z,3.32
2017-05-28T20:41:42.247Z,3.64
2017-05-28T20:44:10.566Z,3.50
2017-05-28T20:46:38.865Z,3.30
2017-05-28T20:49:07.191Z,3.40
2017-05-28T20:51:35.493Z,3.82
2017-05-28T20:54:04.543Z,3.40
2017-05-28T20:56:32.841Z,3.68
2017-05-28T20:59:01.307Z,3.28
2017-05-28T21:01:29.711Z,3.60
2017-05-28T21:03:58.021Z,2.24
2017-05-28T21:06:26.462Z,2.68
2017-05-28T21:08:54.836Z,6.66
2017-05-28T21:11:23.217Z,6.04
2017-05-28T21:13:51.543Z,5.24
2017-05-28T21:16:19.839Z,5.02
2017-05-28T21:18:48.147Z,5.52
2017-05-28T21:21:16.551Z,4.34
2017-05-28T21:23:44.856Z,4.44
2017-05-28T21:26:13.155Z,3.98
2017-05-28T21:28:41.558Z,3.98
2017-05-28T21:31:09.946Z,3.60
2017-05-28T21:33:38.246Z,3.42
2017-05-28T21:36:06.558Z,3.22
2017-05-28T21:38:34.921Z,3.22
2017-05-28T21:41:03.251Z,2.78
2017-05-28T21:43:31.642Z,2.36
2017-05-28T21:45:59.978Z,2.70
2017-05-28T21:48:28.380Z,2.48
2017-05-28T21:50:56.862Z,2.70
2017-05-28T21:53:25.343Z,2.30
2017-05-28T21:55:53.738Z,3.26
2017-05-28T21:58:22.033Z,2.52
2017-05-28T22:00:50.350Z,2.60
2017-05-28T22:03:18.648Z,2.82
2017-05-28T22:05:46.977Z,2.70
2017-05-28T22:08:15.409Z,2.92
2017-05-28T22:10:43.701Z,3.02
2017-05-28T22:13:12.022Z,3.02
2017-05-28T22:15:40.341Z,3.14
2017-05-28T22:18:08.719Z,3.20
2017-05-28T22:20:37.047Z,2.98
2017-05-28T22:23:05.347Z,3.24
2017-05-28T22:25:33.640Z,3.04
2017-05-28T22:28:02.043Z,2.86
2017-05-28T22:30:30.512Z,3.18
2017-05-28T22:32:58.831Z,2.44
2017-05-28T22:35:27.174Z,3.30
2017-05-28T22:37:55.562Z,2.80
2017-05-28T22:40:24.024Z,2.88
2017-05-28T22:42:52.507Z,3.20
2017-05-28T22:45:20.802Z,2.90
2017-05-28T22:47:49.267Z,2.90
2017-05-28T22:50:17.665Z,3.30
2017-05-28T22:52:45.958Z,3.34
2017-05-28T22:55:14.296Z,3.54
2017-05-28T22:57:42.788Z,3.08
2017-05-28T23:00:11.153Z,3.20
2017-05-28T23:02:39.470Z,3.60
2017-05-28T23:05:07.758Z,3.10
2017-05-28T23:07:36.100Z,2.96
2017-05-28T23:10:04.397Z,2.94
2017-05-28T23:12:32.721Z,3.24
2017-05-28T23:15:01.015Z,3.08
2017-05-28T23:17:29.325Z,2.90
2017-05-28T23:19:57.715Z,2.96
2017-05-28T23:22:26.059Z,3.18
2017-05-28T23:24:54.349Z,3.08
2017-05-28T23:27:22.670Z,3.26
2017-05-28T23:29:50.962Z,3.12
2017-05-28T23:32:19.271Z,3.36
2017-05-28T23:34:47.571Z,3.34
2017-05-28T23:37:16.016Z,2.70
2017-05-28T23:39:44.498Z,2.70
2017-05-28T23:42:12.883Z,3.40
2017-05-28T23:44:41.278Z,3.50
2017-05-28T23:47:09.570Z,2.84
2017-05-28T23:49:37.859Z,3.50
2017-05-28T23:52:06.510Z,3.00
2017-05-28T23:54:34.878Z,3.20
2017-05-28T23:57:03.182Z,3.12
2017-05-28T23:59:31.532Z,3.38
